Terminal Aerodrome Forecast
Issued by NWS

Home | Current Version | Previous Version | Text Only | Print | Product List | Glossary On
Versions: 1 2 3 4 5 6 7 8 9 10 11 12 13 14 15 16 17 18 19 20 21 22
000
FTUS46 KPDT 302320
TAFRDM
TAF
KRDM 302320Z 3100/3124 32014G22KT P6SM SCT060
     FM310400 32007KT P6SM SCT250
     FM311000 VRB05KT P6SM FEW040
     FM311900 34007KT P6SM SKC=

USA.gov is the U.S. government's official web portal to all federal, state and local government web resources and services.